ENQO weather

Oseberg East Platform
Norway

Public forecast

Using degrees Celsius for public forecast. Weather courtesy of forecast.io.

Closest aviation weather report (METAR) to Oseberg East Platform

Closest report is Oseberg A Platform, 12.9 nm (23.9 km) SSW. Retrieved 2019/12/05 19:20 UTC (0 seconds ago):

ENOA 051920Z 28009KT 2500 RA OVC006 06/06 Q0985 W///S7

Closest aviation forecast (TAF) to Oseberg East Platform

Closest forecast is Oseberg A Platform, 12.9 nm (23.9 km) SSW. Retrieved 2019/12/05 18:57 UTC (17 minutes ago):

TAF ENOA 051700Z 0518/0618 24025KT 9999 -SHRA SCT015TCU BKN030 BECMG 0518/0522 27015KT PROB30 TEMPO 0518/0524 RA BKN012 TEMPO 0601/0606 29025KT BECMG 0610/0612 33012KT BECMG 0616/0618 33022KT